Time;durP1;ratioP1;P1;durP2;ratioP2;P2;SDS_P1;SDS_P2;PMS_P1;PMS_P2;Temp;Humidity;BMP_temperature;BMP_pressure;BME280_temperature;BME280_humidity;BME280_pressure;Samples;Min_cycle;Max_cycle;Signal;HPM_P1;HPM_P2
2022/01/18 00:03:15;;;;;;;5.43;1.02;;;7.90;99.90;;;;;;10241944;28;87417;-55
2022/01/18 00:08:17;;;;;;;3.58;1.02;;;8.00;99.90;;;;;;10261777;28;84130;-49
2022/01/18 00:13:41;;;;;;;5.82;1.52;;;7.90;99.90;;;;;;10268102;28;84082;-50
2022/01/18 00:18:39;;;;;;;6.57;1.20;;;7.90;99.90;;;;;;10283122;28;84938;-50
2022/01/18 00:23:40;;;;;;;5.60;0.85;;;8.10;99.90;;;;;;10285704;28;85202;-53
2022/01/18 00:28:42;;;;;;;3.30;1.00;;;8.10;99.90;;;;;;10290790;28;84907;-48
2022/01/18 00:38:56;;;;;;;3.92;1.15;;;7.90;99.90;;;;;;10270036;28;84865;-49
2022/01/18 00:43:57;;;;;;;8.75;1.50;;;7.90;99.90;;;;;;10279931;28;84085;-48
2022/01/18 00:49:01;;;;;;;7.40;1.08;;;8.00;99.90;;;;;;10288661;28;84151;-50
2022/01/18 00:54:02;;;;;;;11.10;1.20;;;8.00;99.90;;;;;;10288041;28;84117;-54
2022/01/18 00:59:03;;;;;;;6.18;0.90;;;7.90;99.90;;;;;;10289192;28;84282;-50
2022/01/18 01:04:05;;;;;;;6.93;1.70;;;7.90;99.90;;;;;;10276329;28;84233;-54
2022/01/18 01:09:07;;;;;;;8.85;1.40;;;7.90;99.90;;;;;;10264783;28;84034;-55
2022/01/18 01:14:12;;;;;;;4.10;1.23;;;7.90;99.90;;;;;;10275601;28;86791;-51
2022/01/18 01:45:44;;;;;;;5.43;1.50;;;7.80;99.90;;;;;;10268819;28;84380;-51
2022/01/18 01:50:49;;;;;;;8.82;1.38;;;7.70;99.90;;;;;;10287303;28;84792;-53
2022/01/18 01:55:52;;;;;;;10.55;2.30;;;7.70;99.90;;;;;;10285295;28;85787;-54
2022/01/18 02:01:02;;;;;;;6.63;1.25;;;7.60;99.90;;;;;;10286158;28;84185;-53
2022/01/18 02:06:03;;;;;;;10.73;1.88;;;7.70;99.90;;;;;;10287120;28;84598;-50
2022/01/18 02:11:03;;;;;;;7.18;1.65;;;7.60;99.90;;;;;;10285652;28;84850;-50
2022/01/18 02:26:27;;;;;;;6.93;1.77;;;7.70;99.90;;;;;;10285939;28;83984;-48
2022/01/18 02:31:28;;;;;;;12.43;2.00;;;7.60;99.90;;;;;;10263432;28;84913;-46
2022/01/18 02:36:30;;;;;;;6.78;1.52;;;7.60;99.90;;;;;;10256497;28;85202;-48
2022/01/18 02:41:32;;;;;;;6.25;1.73;;;7.60;99.90;;;;;;10256331;28;84236;-48
2022/01/18 02:46:33;;;;;;;5.88;1.70;;;7.60;99.90;;;;;;10281357;28;84793;-48
2022/01/18 02:51:34;;;;;;;9.57;1.95;;;7.50;99.90;;;;;;10283735;28;84968;-49
2022/01/18 02:56:45;;;;;;;6.68;1.80;;;7.50;99.90;;;;;;10283100;28;86972;-48
2022/01/18 03:07:05;;;;;;;12.20;2.05;;;7.40;99.90;;;;;;10256302;28;84762;-48
2022/01/18 03:12:08;;;;;;;21.30;2.10;;;7.40;99.90;;;;;;10266394;28;84301;-52
2022/01/18 03:17:09;;;;;;;7.85;1.83;;;7.40;99.90;;;;;;10284281;28;84905;-51
2022/01/18 03:22:09;;;;;;;12.18;1.85;;;7.50;99.90;;;;;;10281839;28;84695;-46
2022/01/18 03:32:30;;;;;;;13.50;2.03;;;7.60;99.90;;;;;;10284500;28;85079;-49
2022/01/18 03:37:30;;;;;;;9.75;2.17;;;7.60;99.90;;;;;;10240992;28;84955;-48
2022/01/18 03:42:41;;;;;;;10.35;2.00;;;7.50;99.90;;;;;;10244704;28;84110;-49
2022/01/18 03:47:42;;;;;;;9.55;2.42;;;7.60;99.90;;;;;;10263617;28;86100;-46
2022/01/18 03:52:45;;;;;;;9.15;2.53;;;7.60;99.90;;;;;;10246567;28;84200;-49
2022/01/18 03:57:46;;;;;;;12.77;2.10;;;7.50;99.90;;;;;;10244795;28;84976;-47
2022/01/18 04:02:48;;;;;;;9.82;2.25;;;7.50;99.90;;;;;;10249201;28;84959;-53
2022/01/18 04:07:49;;;;;;;10.15;2.58;;;7.50;99.90;;;;;;10259129;28;84035;-49
2022/01/18 04:12:49;;;;;;;9.20;2.03;;;7.40;99.90;;;;;;10280331;28;84995;-51
2022/01/18 04:33:26;;;;;;;11.27;2.03;;;7.30;99.90;;;;;;10288555;28;85022;-54
2022/01/18 04:38:27;;;;;;;16.83;2.50;;;7.30;99.90;;;;;;10266658;28;84051;-50
2022/01/18 04:43:45;;;;;;;7.82;1.90;;;7.20;99.90;;;;;;10273393;28;84014;-53
2022/01/18 04:48:46;;;;;;;16.67;2.72;;;7.20;99.90;;;;;;10287136;28;84265;-50
2022/01/18 04:53:51;;;;;;;10.02;2.17;;;7.30;99.90;;;;;;10288582;28;84275;-50
2022/01/18 04:58:52;;;;;;;11.13;1.77;;;7.30;99.90;;;;;;10288527;28;84944;-47
2022/01/18 05:03:53;;;;;;;9.35;2.10;;;7.30;99.90;;;;;;10282422;28;84977;-51
2022/01/18 05:08:54;;;;;;;7.80;1.75;;;7.30;99.90;;;;;;10254093;28;84707;-48
2022/01/18 05:24:12;;;;;;;7.40;1.77;;;7.30;99.90;;;;;;10286367;22;85614;-49
2022/01/18 05:29:13;;;;;;;13.25;1.83;;;7.30;99.90;;;;;;10267972;28;84910;-49
2022/01/18 05:34:14;;;;;;;14.20;1.90;;;7.10;99.90;;;;;;10236320;28;84955;-49
2022/01/18 05:39:15;;;;;;;8.70;2.38;;;7.10;99.90;;;;;;10249562;28;85171;-48
2022/01/18 05:44:16;;;;;;;12.85;2.40;;;7.10;99.90;;;;;;10247964;28;84953;-53
2022/01/18 05:49:17;;;;;;;9.05;2.00;;;7.10;99.90;;;;;;10247765;28;86104;-49
2022/01/18 05:54:18;;;;;;;12.52;2.22;;;7.00;99.90;;;;;;10247361;28;84123;-50
2022/01/18 05:59:23;;;;;;;8.82;2.05;;;7.10;99.90;;;;;;10247395;28;84098;-48
2022/01/18 06:09:43;;;;;;;15.02;2.75;;;7.00;99.90;;;;;;10249242;28;84148;-52
2022/01/18 06:14:45;;;;;;;11.77;2.15;;;7.10;99.90;;;;;;10247045;28;86043;-49
2022/01/18 06:19:45;;;;;;;14.77;2.05;;;7.10;99.90;;;;;;10244838;28;84273;-47
2022/01/18 06:24:46;;;;;;;13.90;2.75;;;7.20;99.90;;;;;;10240426;28;84181;-50
2022/01/18 06:29:47;;;;;;;13.15;2.38;;;7.20;99.90;;;;;;10247773;28;84132;-50
2022/01/18 06:34:47;;;;;;;13.95;2.50;;;7.20;99.90;;;;;;10224631;28;86062;-50
2022/01/18 06:39:48;;;;;;;19.60;2.58;;;7.20;99.90;;;;;;10256310;28;84991;-49
2022/01/18 06:44:49;;;;;;;12.57;2.30;;;7.20;99.90;;;;;;10247711;28;84880;-52
2022/01/18 06:49:50;;;;;;;11.30;2.90;;;7.20;99.90;;;;;;10243984;28;84108;-49
2022/01/18 06:54:50;;;;;;;12.48;2.45;;;7.20;99.90;;;;;;10239619;28;84717;-51
2022/01/18 06:59:51;;;;;;;9.13;2.38;;;7.30;99.90;;;;;;10245708;28;84020;-56
2022/01/18 07:04:53;;;;;;;13.50;2.80;;;7.30;99.90;;;;;;10264410;28;85110;-57
2022/01/18 07:09:53;;;;;;;13.45;2.50;;;7.40;99.90;;;;;;10241055;28;86248;-55
2022/01/18 07:14:54;;;;;;;8.60;2.30;;;7.40;99.90;;;;;;10246851;28;84377;-49
2022/01/18 07:19:55;;;;;;;12.70;2.60;;;7.50;99.90;;;;;;10242440;28;85054;-54
2022/01/18 07:24:58;;;;;;;8.65;2.20;;;7.50;99.90;;;;;;10243402;28;84203;-58
2022/01/18 07:29:58;;;;;;;9.93;2.78;;;7.50;99.90;;;;;;10243369;28;84954;-48
2022/01/18 07:34:59;;;;;;;17.25;3.22;;;7.40;99.90;;;;;;10248784;28;85230;-55
2022/01/18 07:40:00;;;;;;;13.77;2.72;;;7.40;99.90;;;;;;10253227;28;84861;-55
2022/01/18 07:45:01;;;;;;;14.02;3.10;;;7.30;99.90;;;;;;10264670;28;85223;-55
2022/01/18 07:50:02;;;;;;;11.55;2.42;;;7.30;99.90;;;;;;10257872;28;84028;-46
2022/01/18 07:55:06;;;;;;;14.43;3.40;;;7.30;99.90;;;;;;10292388;28;84804;-60
2022/01/18 08:00:09;;;;;;;12.95;3.15;;;7.20;99.90;;;;;;10260919;28;84914;-57
2022/01/18 08:05:14;;;;;;;15.13;3.05;;;7.20;99.90;;;;;;10250921;28;84613;-48
2022/01/18 08:10:18;;;;;;;11.98;3.88;;;7.20;99.90;;;;;;10251562;28;84136;-54
2022/01/18 08:15:21;;;;;;;9.52;2.67;;;7.20;99.90;;;;;;10252028;28;84952;-56
2022/01/18 08:20:22;;;;;;;11.73;2.65;;;7.20;99.90;;;;;;10250984;28;84022;-55
2022/01/18 08:25:23;;;;;;;10.90;2.80;;;7.20;99.90;;;;;;10250891;28;84166;-57
2022/01/18 08:30:24;;;;;;;15.48;3.35;;;7.20;99.90;;;;;;10249098;28;86443;-54
2022/01/18 08:35:25;;;;;;;10.68;2.70;;;7.20;99.90;;;;;;10250491;28;84184;-54
2022/01/18 08:40:25;;;;;;;12.25;3.55;;;7.20;99.90;;;;;;10250799;28;84500;-49
2022/01/18 08:45:26;;;;;;;10.43;3.20;;;7.20;99.90;;;;;;10252069;28;84334;-47
2022/01/18 08:50:27;;;;;;;8.98;3.42;;;7.30;99.90;;;;;;10260847;28;84210;-52
2022/01/18 08:55:29;;;;;;;10.93;3.85;;;7.30;99.90;;;;;;10293892;28;84146;-52
2022/01/18 09:00:31;;;;;;;13.13;3.53;;;7.40;99.90;;;;;;10268384;28;83998;-51
2022/01/18 09:05:32;;;;;;;13.60;4.20;;;7.50;99.90;;;;;;10264914;28;84192;-50
2022/01/18 09:10:33;;;;;;;8.80;3.10;;;7.60;99.90;;;;;;10255317;28;84111;-52
2022/01/18 09:15:34;;;;;;;12.25;4.95;;;7.70;99.90;;;;;;10249543;28;84901;-51
2022/01/18 09:20:35;;;;;;;13.75;3.75;;;7.70;99.90;;;;;;10250478;28;85137;-52
2022/01/18 09:25:36;;;;;;;12.50;2.92;;;7.80;99.90;;;;;;10250651;28;84146;-53
2022/01/18 09:30:38;;;;;;;13.25;3.58;;;7.80;99.90;;;;;;10248986;28;84463;-52
2022/01/18 09:35:39;;;;;;;13.60;4.53;;;7.90;99.90;;;;;;10248779;28;85050;-48
2022/01/18 09:40:42;;;;;;;10.73;3.17;;;7.90;99.90;;;;;;10248785;28;83955;-48
2022/01/18 09:45:45;;;;;;;8.38;3.38;;;8.00;99.90;;;;;;10245713;28;84454;-49
2022/01/18 09:50:46;;;;;;;14.93;3.17;;;8.20;99.90;;;;;;10261473;28;84716;-50
2022/01/18 09:55:49;;;;;;;17.50;2.97;;;8.40;99.90;;;;;;10287329;28;85395;-53
2022/01/18 10:00:50;;;;;;;9.13;3.13;;;8.50;99.90;;;;;;10263028;28;84890;-50
2022/01/18 10:05:51;;;;;;;9.93;2.78;;;8.70;99.90;;;;;;10247033;28;85998;-56
2022/01/18 10:10:58;;;;;;;8.40;2.58;;;8.90;99.90;;;;;;10248383;28;84186;-50
2022/01/18 10:16:14;;;;;;;10.45;2.33;;;9.40;99.90;;;;;;10248437;28;84207;-51
2022/01/18 10:21:34;;;;;;;7.78;2.22;;;10.30;99.90;;;;;;10242561;28;84993;-53
2022/01/18 10:26:43;;;;;;;8.57;1.90;;;11.20;99.90;;;;;;10247019;28;84136;-44
2022/01/18 10:37:01;;;;;;;9.52;2.33;;;11.80;1.00;;;;;;10248061;28;83999;-54
2022/01/18 10:42:16;;;;;;;6.53;1.60;;;12.30;1.00;;;;;;10247903;28;85312;-50
2022/01/18 10:47:17;;;;;;;5.50;1.48;;;12.10;1.00;;;;;;10246515;28;84300;-52
2022/01/18 10:52:22;;;;;;;8.13;1.73;;;11.70;99.90;;;;;;10270733;28;84101;-54
2022/01/18 10:57:30;;;;;;;5.32;1.10;;;12.10;1.00;;;;;;10247353;28;84668;-57
2022/01/18 11:02:35;;;;;;;6.13;1.20;;;11.60;1.00;;;;;;10246062;28;84120;-56
2022/01/18 11:07:39;;;;;;;8.68;1.65;;;12.20;99.90;;;;;;10245542;28;84718;-58
2022/01/18 11:12:48;;;;;;;6.63;1.85;;;12.20;99.90;;;;;;10246634;28;85154;-54
2022/01/18 11:17:56;;;;;;;13.95;2.05;;;12.20;99.90;;;;;;10246189;28;84151;-56
2022/01/18 11:22:58;;;;;;;5.90;2.03;;;11.50;1.00;;;;;;10266832;23;84776;-48
2022/01/18 11:27:59;;;;;;;4.93;1.88;;;11.20;1.00;;;;;;10245750;28;85184;-48
2022/01/18 11:33:02;;;;;;;3.85;1.05;;;10.60;1.00;;;;;;10244405;28;84026;-49
2022/01/18 11:38:37;;;;;;;7.22;2.10;;;10.10;1.00;;;;;;10243674;28;84879;-47
2022/01/18 11:43:40;;;;;;;6.38;1.27;;;10.20;1.00;;;;;;10235677;28;84349;-48
2022/01/18 11:48:45;;;;;;;6.25;1.85;;;10.30;1.00;;;;;;10243892;28;85273;-47
2022/01/18 11:59:19;;;;;;;6.28;2.35;;;10.10;1.00;;;;;;10243879;28;84896;-55
2022/01/18 12:04:40;;;;;;;6.53;1.63;;;10.00;1.00;;;;;;10243366;28;84936;-55
2022/01/18 12:09:42;;;;;;;6.20;1.58;;;9.90;1.00;;;;;;10245040;28;84960;-53
2022/01/18 12:14:43;;;;;;;9.73;1.67;;;9.70;1.00;;;;;;10242965;28;85696;-56
2022/01/18 12:19:47;;;;;;;7.55;1.88;;;9.70;1.00;;;;;;10247986;28;84080;-54
2022/01/18 12:24:48;;;;;;;10.88;2.33;;;9.70;1.00;;;;;;10251374;28;84142;-53
2022/01/18 12:30:54;;;;;;;3.50;1.35;;;9.60;1.00;;;;;;10251478;28;84174;-51
2022/01/18 12:35:48;;;;;;;7.65;1.70;;;9.90;1.00;;;;;;10204561;28;85391;-50
2022/01/18 12:40:49;;;;;;;9.35;2.13;;;10.90;1.00;;;;;;10249085;28;84233;-54
2022/01/18 12:45:49;;;;;;;7.30;2.10;;;11.40;1.00;;;;;;10249363;28;84389;-56
2022/01/18 12:50:53;;;;;;;9.30;2.00;;;11.20;1.00;;;;;;10249456;28;85033;-51
2022/01/18 12:56:03;;;;;;;7.93;2.00;;;11.00;99.90;;;;;;10247652;28;85998;-58
2022/01/18 13:01:09;;;;;;;9.85;2.45;;;10.60;99.90;;;;;;10248122;28;85909;-55
2022/01/18 13:06:12;;;;;;;6.88;2.13;;;10.20;99.90;;;;;;10248124;28;84727;-52
2022/01/18 13:11:31;;;;;;;8.30;2.53;;;10.20;99.90;;;;;;10249701;28;84123;-51
2022/01/18 13:27:13;;;;;;;9.10;1.98;;;9.80;99.90;;;;;;10249618;28;84005;-47
2022/01/18 13:32:20;;;;;;;8.95;1.95;;;9.70;99.90;;;;;;10248382;28;85133;-46
2022/01/18 13:37:26;;;;;;;5.93;1.83;;;9.60;99.90;;;;;;10248961;28;84933;-46
2022/01/18 13:42:35;;;;;;;9.52;1.75;;;9.60;99.90;;;;;;10252274;28;85004;-47
2022/01/18 13:47:42;;;;;;;5.15;1.30;;;9.60;99.90;;;;;;10247481;28;86977;-53
2022/01/18 13:52:43;;;;;;;4.65;1.80;;;9.60;99.90;;;;;;10247584;28;84919;-50
2022/01/18 13:57:55;;;;;;;8.18;1.63;;;9.50;99.90;;;;;;10237825;28;85058;-53
2022/01/18 14:02:56;;;;;;;7.10;1.83;;;9.60;99.90;;;;;;10244867;28;85932;-56
2022/01/18 14:08:10;;;;;;;7.13;1.23;;;9.60;99.90;;;;;;10243513;28;84784;-53
2022/01/18 14:13:29;;;;;;;7.40;1.85;;;9.70;99.90;;;;;;10229283;28;85460;-53
2022/01/18 14:18:49;;;;;;;6.10;2.20;;;9.60;99.90;;;;;;10247964;28;84874;-52
2022/01/18 14:24:25;;;;;;;4.93;1.60;;;9.60;99.90;;;;;;10246448;28;84961;-53
2022/01/18 14:29:29;;;;;;;8.45;2.03;;;9.60;99.90;;;;;;10236544;28;85040;-56
2022/01/18 14:34:42;;;;;;;7.43;2.00;;;9.50;99.90;;;;;;10249791;28;84364;-53
2022/01/18 14:39:59;;;;;;;6.35;2.08;;;9.60;99.90;;;;;;10252806;28;84240;-52
2022/01/18 14:50:18;;;;;;;6.43;1.55;;;9.50;99.90;;;;;;10240045;28;84149;-53
2022/01/18 14:55:20;;;;;;;2.75;1.33;;;9.50;99.90;;;;;;10239042;28;84995;-54
2022/01/18 15:00:21;;;;;;;4.63;1.52;;;9.40;99.90;;;;;;10244941;28;84442;-52
2022/01/18 15:05:23;;;;;;;7.78;2.08;;;9.40;99.90;;;;;;10246056;28;84195;-51
2022/01/18 15:10:25;;;;;;;6.25;2.00;;;9.40;99.90;;;;;;10245648;28;85070;-54
2022/01/18 15:15:29;;;;;;;8.82;2.28;;;9.40;99.90;;;;;;10235290;28;84452;-50
2022/01/18 15:20:31;;;;;;;6.28;1.75;;;9.30;99.90;;;;;;10239770;28;84094;-46
2022/01/18 15:25:31;;;;;;;4.10;2.00;;;9.20;99.90;;;;;;10240099;28;84347;-59
2022/01/18 15:30:32;;;;;;;7.82;2.03;;;9.10;99.90;;;;;;10244636;28;86565;-52
2022/01/18 15:35:33;;;;;;;9.45;2.25;;;9.00;99.90;;;;;;10242241;28;85025;-57
2022/01/18 15:40:35;;;;;;;7.30;2.17;;;8.90;99.90;;;;;;10245908;28;84967;-47
2022/01/18 15:45:35;;;;;;;6.00;2.20;;;9.00;99.90;;;;;;10242270;28;85009;-51
2022/01/18 15:50:36;;;;;;;9.15;2.28;;;9.00;99.90;;;;;;10238974;28;85073;-50
2022/01/18 15:55:37;;;;;;;5.93;2.25;;;9.00;99.90;;;;;;10247490;28;84170;-48
2022/01/18 16:00:41;;;;;;;8.23;2.42;;;8.90;99.90;;;;;;10251234;28;84335;-48
2022/01/18 16:05:43;;;;;;;9.05;2.55;;;9.00;99.90;;;;;;10248743;28;84178;-47
2022/01/18 16:10:43;;;;;;;10.40;2.38;;;9.00;99.90;;;;;;10248659;28;84769;-51
2022/01/18 16:15:44;;;;;;;10.65;2.17;;;9.00;99.90;;;;;;10248643;28;84141;-50
2022/01/18 16:20:45;;;;;;;6.88;1.75;;;9.00;99.90;;;;;;10250424;28;84048;-48
2022/01/18 16:25:46;;;;;;;8.63;1.35;;;8.90;99.90;;;;;;10241364;28;84990;-51
2022/01/18 16:30:50;;;;;;;6.03;2.00;;;8.80;99.90;;;;;;10247433;28;84063;-46
2022/01/18 16:35:50;;;;;;;6.20;1.98;;;8.80;99.90;;;;;;10249776;28;85032;-46
2022/01/18 16:40:51;;;;;;;7.78;1.77;;;8.80;99.90;;;;;;10251518;28;84972;-44
2022/01/18 16:45:52;;;;;;;5.93;1.83;;;8.80;99.90;;;;;;10241953;28;84847;-48
2022/01/18 16:50:53;;;;;;;7.03;1.75;;;8.90;99.90;;;;;;10246154;28;84282;-50
2022/01/18 16:55:53;;;;;;;9.82;2.20;;;8.90;99.90;;;;;;10246945;28;85032;-48
2022/01/18 17:00:54;;;;;;;6.65;1.90;;;8.80;99.90;;;;;;10247614;28;84153;-49
2022/01/18 17:05:55;;;;;;;6.32;1.65;;;8.70;99.90;;;;;;10249174;28;84261;-48
2022/01/18 17:10:55;;;;;;;8.02;2.30;;;8.60;1.00;;;;;;10250147;28;85148;-52
2022/01/18 17:15:56;;;;;;;5.03;2.00;;;8.60;1.00;;;;;;10249527;28;84116;-52
2022/01/18 17:20:57;;;;;;;14.50;2.83;;;8.50;1.00;;;;;;10243319;28;85238;-47
2022/01/18 17:25:58;;;;;;;8.20;2.10;;;8.40;1.00;;;;;;10306374;22;84221;-54
2022/01/18 17:30:59;;;;;;;7.78;2.35;;;8.40;1.00;;;;;;10329840;28;84201;-62
2022/01/18 17:36:00;;;;;;;3.78;1.85;;;8.40;1.00;;;;;;10297776;28;84952;-55
2022/01/18 17:41:00;;;;;;;10.82;2.17;;;8.30;1.00;;;;;;10282998;28;85263;-53
2022/01/18 17:46:01;;;;;;;10.40;2.35;;;8.40;1.00;;;;;;10271333;28;85138;-55
2022/01/18 17:51:02;;;;;;;7.00;2.20;;;8.40;1.00;;;;;;10267068;28;84461;-57
2022/01/18 17:56:03;;;;;;;7.15;2.33;;;8.20;1.00;;;;;;10280896;28;84325;-52
2022/01/18 18:01:04;;;;;;;6.78;2.08;;;8.30;1.00;;;;;;10286073;28;84623;-55
2022/01/18 18:06:04;;;;;;;7.57;2.58;;;8.30;1.00;;;;;;10285006;28;84908;-54
2022/01/18 18:11:05;;;;;;;9.60;1.95;;;8.30;1.00;;;;;;10286158;28;84242;-56
2022/01/18 18:16:06;;;;;;;10.35;2.88;;;8.30;1.00;;;;;;10285881;28;84256;-57
2022/01/18 18:21:06;;;;;;;11.45;2.95;;;8.30;1.00;;;;;;10285551;28;84962;-54
2022/01/18 18:26:09;;;;;;;10.40;3.35;;;8.40;1.00;;;;;;10285957;28;85258;-56
2022/01/18 18:31:11;;;;;;;9.13;2.85;;;8.50;1.00;;;;;;10287330;28;84122;-56
2022/01/18 18:36:11;;;;;;;9.73;2.53;;;8.50;1.00;;;;;;10286218;28;84939;-57
2022/01/18 18:41:29;;;;;;;19.55;4.53;;;8.40;1.00;;;;;;10295187;28;84853;-51
2022/01/18 18:46:29;;;;;;;16.27;4.95;;;8.40;1.00;;;;;;10287202;28;84956;-54
2022/01/18 18:51:30;;;;;;;9.23;2.97;;;8.30;1.00;;;;;;10276128;28;84901;-55
2022/01/18 18:56:34;;;;;;;22.33;5.38;;;8.20;1.00;;;;;;10280918;28;84174;-57
2022/01/18 19:07:01;;;;;;;7.22;3.20;;;8.30;1.00;;;;;;10283646;28;84235;-52
2022/01/18 19:12:02;;;;;;;7.18;3.20;;;8.40;1.00;;;;;;10266105;28;84303;-58
2022/01/18 19:17:07;;;;;;;10.50;3.63;;;8.40;1.00;;;;;;10285602;28;84349;-56
2022/01/18 19:22:08;;;;;;;9.43;3.58;;;8.40;1.00;;;;;;10264899;28;84317;-53
2022/01/18 19:27:08;;;;;;;13.13;3.40;;;8.50;1.00;;;;;;10281468;28;84404;-54
2022/01/18 19:32:09;;;;;;;12.43;3.10;;;8.50;1.00;;;;;;10284383;28;84899;-51
2022/01/18 19:37:09;;;;;;;10.88;3.63;;;8.40;1.00;;;;;;10325242;28;85090;-55
2022/01/18 19:42:13;;;;;;;9.63;2.88;;;8.30;1.00;;;;;;10334167;28;84188;-55
2022/01/18 19:47:14;;;;;;;9.02;3.10;;;8.30;1.00;;;;;;10333468;28;84884;-51
2022/01/18 19:52:15;;;;;;;7.63;3.40;;;8.30;1.00;;;;;;10316153;28;84950;-54
2022/01/18 19:57:15;;;;;;;10.90;4.38;;;8.40;1.00;;;;;;10333345;28;84920;-56
2022/01/18 20:02:16;;;;;;;11.75;4.10;;;8.40;1.00;;;;;;10311096;28;84242;-52
2022/01/18 20:07:17;;;;;;;14.55;4.25;;;8.30;1.00;;;;;;10292349;28;85415;-56
2022/01/18 20:12:17;;;;;;;10.48;3.88;;;8.30;1.00;;;;;;10283923;28;84396;-56
2022/01/18 20:17:19;;;;;;;7.80;3.90;;;8.40;1.00;;;;;;10294294;28;85065;-57
2022/01/18 20:22:20;;;;;;;10.70;4.55;;;8.30;1.00;;;;;;10292935;28;84761;-55
2022/01/18 20:27:31;;;;;;;10.30;4.00;;;8.30;1.00;;;;;;10291228;28;85270;-56
2022/01/18 20:32:32;;;;;;;16.02;5.47;;;8.30;1.00;;;;;;10276948;28;84239;-56
2022/01/18 20:37:33;;;;;;;15.95;6.10;;;8.40;1.00;;;;;;10290266;28;86157;-56
2022/01/18 20:47:53;;;;;;;18.23;7.65;;;8.30;1.00;;;;;;10293507;28;85184;-53
2022/01/18 20:52:54;;;;;;;16.65;8.57;;;8.30;1.00;;;;;;10289251;28;84991;-57
2022/01/18 20:57:54;;;;;;;25.00;9.50;;;8.20;1.00;;;;;;10279018;28;85007;-54
2022/01/18 21:02:55;;;;;;;22.70;9.60;;;8.30;1.00;;;;;;10283928;28;84178;-57
2022/01/18 21:07:56;;;;;;;27.88;10.02;;;8.40;1.00;;;;;;10288164;28;84962;-55
2022/01/18 21:12:59;;;;;;;22.23;10.10;;;8.40;1.00;;;;;;10297977;28;84992;-57
2022/01/18 21:18:00;;;;;;;29.20;10.95;;;8.40;1.00;;;;;;10300170;28;84990;-55
2022/01/18 21:23:01;;;;;;;25.88;11.60;;;8.40;1.00;;;;;;10296481;28;84355;-57
2022/01/18 21:28:02;;;;;;;26.63;11.50;;;8.40;1.00;;;;;;10312970;28;84935;-58
2022/01/18 21:33:06;;;;;;;27.33;9.98;;;8.30;1.00;;;;;;10289981;28;84036;-58
2022/01/18 21:38:07;;;;;;;23.27;9.75;;;8.30;1.00;;;;;;10289037;28;85057;-57
2022/01/18 21:43:09;;;;;;;19.60;8.85;;;8.30;1.00;;;;;;10284245;28;84284;-57
2022/01/18 21:48:10;;;;;;;23.52;9.50;;;8.30;1.00;;;;;;10288649;28;84233;-58
2022/01/18 21:53:10;;;;;;;24.85;11.48;;;8.20;1.00;;;;;;10288011;28;84119;-55
2022/01/18 21:58:11;;;;;;;25.73;10.00;;;8.10;1.00;;;;;;10289041;28;84162;-56
2022/01/18 22:03:12;;;;;;;28.27;11.27;;;8.20;1.00;;;;;;10288868;28;84313;-54
2022/01/18 22:08:12;;;;;;;30.98;11.23;;;8.10;1.00;;;;;;10286822;28;84900;-58
2022/01/18 22:13:13;;;;;;;25.63;11.63;;;8.10;1.00;;;;;;10288914;28;84149;-58
2022/01/18 22:18:14;;;;;;;24.38;10.35;;;8.10;1.00;;;;;;10288184;28;85699;-58
2022/01/18 22:23:14;;;;;;;27.17;11.50;;;8.00;1.00;;;;;;10288101;28;83984;-58
2022/01/18 22:28:16;;;;;;;26.58;11.95;;;8.00;1.00;;;;;;10288084;28;85345;-57
2022/01/18 22:33:17;;;;;;;31.85;13.38;;;8.00;1.00;;;;;;10287733;28;84134;-58
2022/01/18 22:38:19;;;;;;;29.52;13.38;;;7.90;1.00;;;;;;10287316;28;84164;-57
2022/01/18 22:43:19;;;;;;;31.02;12.40;;;8.00;1.00;;;;;;10288208;28;84341;-57
2022/01/18 22:48:20;;;;;;;40.88;14.55;;;8.10;1.00;;;;;;10287221;28;84106;-57
2022/01/18 22:53:21;;;;;;;34.08;13.70;;;7.90;1.00;;;;;;10287542;28;84830;-58
2022/01/18 22:58:21;;;;;;;39.22;15.38;;;7.90;1.00;;;;;;10287843;28;84924;-56
2022/01/18 23:03:23;;;;;;;36.75;14.77;;;7.80;1.00;;;;;;10286312;28;84235;-56
2022/01/18 23:08:24;;;;;;;28.90;14.13;;;7.70;1.00;;;;;;10286845;28;84035;-54
2022/01/18 23:13:26;;;;;;;33.25;12.68;;;7.50;1.00;;;;;;10287506;28;84744;-57
2022/01/18 23:18:27;;;;;;;33.72;13.07;;;7.30;1.00;;;;;;10286897;28;84721;-55
2022/01/18 23:28:48;;;;;;;29.30;11.70;;;7.20;1.00;;;;;;10166519;28;84541;-45
2022/01/18 23:33:49;;;;;;;29.75;12.27;;;7.00;1.00;;;;;;10167968;28;84809;-44
2022/01/18 23:38:51;;;;;;;32.17;12.25;;;6.90;2.20;;;;;;10183458;28;84174;-45
2022/01/18 23:43:54;;;;;;;31.63;12.63;;;6.70;44.60;;;;;;10190894;28;84875;-46
2022/01/18 23:48:55;;;;;;;31.10;11.48;;;6.70;96.70;;;;;;10189104;28;85026;-52
2022/01/18 23:53:56;;;;;;;27.63;10.82;;;6.70;99.90;;;;;;10207394;28;84911;-46
2022/01/18 23:58:57;;;;;;;32.03;11.40;;;6.70;91.00;;;;;;10193337;28;84830;-45
